sensor_id;sensor_type;location;lat;lon;timestamp;P1;durP1;ratioP1;P2;durP2;ratioP2
84146;SDS011;74267;50.434;7.398;2023-12-22T00:00:03;4.72;;;4.43;;
84146;SDS011;74267;50.434;7.398;2023-12-22T00:02:30;4.82;;;4.53;;
84146;SDS011;74267;50.434;7.398;2023-12-22T00:04:55;4.43;;;4.07;;
84146;SDS011;74267;50.434;7.398;2023-12-22T00:07:21;5.18;;;4.78;;
84146;SDS011;74267;50.434;7.398;2023-12-22T00:09:46;4.30;;;4.00;;
84146;SDS011;74267;50.434;7.398;2023-12-22T00:12:11;4.10;;;3.88;;
84146;SDS011;74267;50.434;7.398;2023-12-22T00:14:37;5.13;;;4.72;;
84146;SDS011;74267;50.434;7.398;2023-12-22T00:17:05;5.07;;;4.65;;
84146;SDS011;74267;50.434;7.398;2023-12-22T00:19:30;5.25;;;4.85;;
84146;SDS011;74267;50.434;7.398;2023-12-22T00:21:56;5.43;;;4.63;;
84146;SDS011;74267;50.434;7.398;2023-12-22T00:24:23;5.78;;;4.18;;
84146;SDS011;74267;50.434;7.398;2023-12-22T00:26:48;7.18;;;6.30;;
84146;SDS011;74267;50.434;7.398;2023-12-22T00:29:13;7.25;;;4.85;;
84146;SDS011;74267;50.434;7.398;2023-12-22T00:31:39;5.63;;;5.13;;
84146;SDS011;74267;50.434;7.398;2023-12-22T00:34:04;5.38;;;4.85;;
84146;SDS011;74267;50.434;7.398;2023-12-22T00:36:29;5.85;;;5.05;;
84146;SDS011;74267;50.434;7.398;2023-12-22T00:38:55;5.85;;;5.03;;
84146;SDS011;74267;50.434;7.398;2023-12-22T00:41:20;5.72;;;5.32;;
84146;SDS011;74267;50.434;7.398;2023-12-22T00:43:45;5.03;;;4.63;;
84146;SDS011;74267;50.434;7.398;2023-12-22T00:46:10;7.00;;;6.38;;
84146;SDS011;74267;50.434;7.398;2023-12-22T00:48:36;4.82;;;4.50;;
84146;SDS011;74267;50.434;7.398;2023-12-22T00:51:01;5.28;;;4.90;;
84146;SDS011;74267;50.434;7.398;2023-12-22T00:53:27;5.63;;;5.10;;
84146;SDS011;74267;50.434;7.398;2023-12-22T00:55:52;5.68;;;5.18;;
84146;SDS011;74267;50.434;7.398;2023-12-22T00:58:17;3.85;;;3.55;;
84146;SDS011;74267;50.434;7.398;2023-12-22T01:00:42;4.65;;;4.32;;
84146;SDS011;74267;50.434;7.398;2023-12-22T01:03:08;4.43;;;4.07;;
84146;SDS011;74267;50.434;7.398;2023-12-22T01:05:33;4.47;;;4.18;;
84146;SDS011;74267;50.434;7.398;2023-12-22T01:07:58;6.00;;;5.45;;
84146;SDS011;74267;50.434;7.398;2023-12-22T01:10:24;5.30;;;5.00;;
84146;SDS011;74267;50.434;7.398;2023-12-22T01:12:49;4.38;;;4.07;;
84146;SDS011;74267;50.434;7.398;2023-12-22T01:15:14;4.78;;;4.47;;
84146;SDS011;74267;50.434;7.398;2023-12-22T01:17:40;7.25;;;4.68;;
84146;SDS011;74267;50.434;7.398;2023-12-22T01:20:05;4.60;;;4.30;;
84146;SDS011;74267;50.434;7.398;2023-12-22T01:22:31;2.35;;;1.80;;
84146;SDS011;74267;50.434;7.398;2023-12-22T01:24:58;5.28;;;4.50;;
84146;SDS011;74267;50.434;7.398;2023-12-22T01:27:24;5.88;;;5.32;;
84146;SDS011;74267;50.434;7.398;2023-12-22T01:29:49;5.30;;;4.88;;
84146;SDS011;74267;50.434;7.398;2023-12-22T01:32:14;3.85;;;3.65;;
84146;SDS011;74267;50.434;7.398;2023-12-22T01:34:41;5.57;;;5.28;;
84146;SDS011;74267;50.434;7.398;2023-12-22T01:37:06;5.63;;;5.15;;
84146;SDS011;74267;50.434;7.398;2023-12-22T01:39:31;6.65;;;5.00;;
84146;SDS011;74267;50.434;7.398;2023-12-22T01:41:57;5.07;;;4.70;;
84146;SDS011;74267;50.434;7.398;2023-12-22T01:44:22;5.18;;;4.88;;
84146;SDS011;74267;50.434;7.398;2023-12-22T01:46:48;4.30;;;4.00;;
84146;SDS011;74267;50.434;7.398;2023-12-22T01:49:14;5.30;;;4.80;;
84146;SDS011;74267;50.434;7.398;2023-12-22T01:51:40;7.32;;;6.90;;
84146;SDS011;74267;50.434;7.398;2023-12-22T01:54:06;4.70;;;4.28;;
84146;SDS011;74267;50.434;7.398;2023-12-22T01:56:32;4.38;;;3.97;;
84146;SDS011;74267;50.434;7.398;2023-12-22T01:58:59;5.18;;;4.78;;
84146;SDS011;74267;50.434;7.398;2023-12-22T02:01:27;6.45;;;5.47;;
84146;SDS011;74267;50.434;7.398;2023-12-22T02:03:53;5.18;;;4.70;;
84146;SDS011;74267;50.434;7.398;2023-12-22T02:06:19;5.95;;;5.35;;
84146;SDS011;74267;50.434;7.398;2023-12-22T02:08:46;5.20;;;4.38;;
84146;SDS011;74267;50.434;7.398;2023-12-22T02:11:12;5.75;;;5.22;;
84146;SDS011;74267;50.434;7.398;2023-12-22T02:13:42;4.97;;;4.55;;
84146;SDS011;74267;50.434;7.398;2023-12-22T02:16:15;8.25;;;6.53;;
84146;SDS011;74267;50.434;7.398;2023-12-22T02:18:46;5.78;;;5.28;;
84146;SDS011;74267;50.434;7.398;2023-12-22T02:21:15;5.05;;;4.65;;
84146;SDS011;74267;50.434;7.398;2023-12-22T02:23:41;5.93;;;5.00;;
84146;SDS011;74267;50.434;7.398;2023-12-22T02:26:08;6.22;;;5.70;;
84146;SDS011;74267;50.434;7.398;2023-12-22T02:28:38;6.03;;;5.15;;
84146;SDS011;74267;50.434;7.398;2023-12-22T02:33:47;6.18;;;5.63;;
84146;SDS011;74267;50.434;7.398;2023-12-22T02:36:14;5.82;;;5.30;;
84146;SDS011;74267;50.434;7.398;2023-12-22T02:38:41;6.00;;;5.32;;
84146;SDS011;74267;50.434;7.398;2023-12-22T02:41:08;5.70;;;5.30;;
84146;SDS011;74267;50.434;7.398;2023-12-22T02:43:34;6.13;;;4.43;;
84146;SDS011;74267;50.434;7.398;2023-12-22T02:46:00;6.38;;;5.10;;
84146;SDS011;74267;50.434;7.398;2023-12-22T02:48:25;5.80;;;5.38;;
84146;SDS011;74267;50.434;7.398;2023-12-22T02:50:51;5.93;;;5.32;;
84146;SDS011;74267;50.434;7.398;2023-12-22T02:53:16;7.38;;;6.32;;
84146;SDS011;74267;50.434;7.398;2023-12-22T02:55:41;6.93;;;5.53;;
84146;SDS011;74267;50.434;7.398;2023-12-22T02:58:07;6.45;;;5.45;;
84146;SDS011;74267;50.434;7.398;2023-12-22T03:00:32;6.72;;;4.68;;
84146;SDS011;74267;50.434;7.398;2023-12-22T03:02:58;8.13;;;6.78;;
84146;SDS011;74267;50.434;7.398;2023-12-22T03:05:23;6.85;;;4.43;;
84146;SDS011;74267;50.434;7.398;2023-12-22T03:07:48;4.40;;;2.78;;
84146;SDS011;74267;50.434;7.398;2023-12-22T03:10:13;7.95;;;6.25;;
84146;SDS011;74267;50.434;7.398;2023-12-22T03:12:39;6.82;;;6.22;;
84146;SDS011;74267;50.434;7.398;2023-12-22T03:15:04;6.70;;;6.07;;
84146;SDS011;74267;50.434;7.398;2023-12-22T03:17:30;7.93;;;5.93;;
84146;SDS011;74267;50.434;7.398;2023-12-22T03:19:56;9.32;;;5.30;;
84146;SDS011;74267;50.434;7.398;2023-12-22T03:22:21;6.22;;;5.65;;
84146;SDS011;74267;50.434;7.398;2023-12-22T03:24:46;5.88;;;5.30;;
84146;SDS011;74267;50.434;7.398;2023-12-22T03:27:12;7.53;;;5.60;;
84146;SDS011;74267;50.434;7.398;2023-12-22T03:29:41;7.22;;;5.10;;
84146;SDS011;74267;50.434;7.398;2023-12-22T03:32:07;5.40;;;4.03;;
84146;SDS011;74267;50.434;7.398;2023-12-22T03:34:32;5.70;;;4.18;;
84146;SDS011;74267;50.434;7.398;2023-12-22T03:36:57;5.40;;;4.90;;
84146;SDS011;74267;50.434;7.398;2023-12-22T03:39:23;7.55;;;5.40;;
84146;SDS011;74267;50.434;7.398;2023-12-22T03:41:48;5.95;;;4.65;;
84146;SDS011;74267;50.434;7.398;2023-12-22T03:44:13;7.82;;;5.53;;
84146;SDS011;74267;50.434;7.398;2023-12-22T03:46:39;9.65;;;5.85;;
84146;SDS011;74267;50.434;7.398;2023-12-22T03:49:04;6.88;;;5.57;;
84146;SDS011;74267;50.434;7.398;2023-12-22T03:51:29;7.53;;;5.40;;
84146;SDS011;74267;50.434;7.398;2023-12-22T03:53:54;7.47;;;5.22;;
84146;SDS011;74267;50.434;7.398;2023-12-22T03:56:20;8.00;;;4.40;;
84146;SDS011;74267;50.434;7.398;2023-12-22T03:58:45;8.25;;;6.35;;
84146;SDS011;74267;50.434;7.398;2023-12-22T04:01:15;9.15;;;5.32;;
84146;SDS011;74267;50.434;7.398;2023-12-22T04:03:40;7.28;;;5.30;;
84146;SDS011;74267;50.434;7.398;2023-12-22T04:06:07;8.40;;;5.07;;
84146;SDS011;74267;50.434;7.398;2023-12-22T04:08:32;6.45;;;4.65;;
84146;SDS011;74267;50.434;7.398;2023-12-22T04:10:58;9.65;;;4.85;;
84146;SDS011;74267;50.434;7.398;2023-12-22T04:13:23;6.18;;;2.40;;
84146;SDS011;74267;50.434;7.398;2023-12-22T04:15:48;6.85;;;5.20;;
84146;SDS011;74267;50.434;7.398;2023-12-22T04:18:14;7.60;;;6.53;;
84146;SDS011;74267;50.434;7.398;2023-12-22T04:20:39;6.85;;;5.43;;
84146;SDS011;74267;50.434;7.398;2023-12-22T04:23:04;6.50;;;5.10;;
84146;SDS011;74267;50.434;7.398;2023-12-22T04:25:30;8.55;;;6.03;;
84146;SDS011;74267;50.434;7.398;2023-12-22T04:27:55;7.05;;;5.20;;
84146;SDS011;74267;50.434;7.398;2023-12-22T04:30:20;8.13;;;5.50;;
84146;SDS011;74267;50.434;7.398;2023-12-22T04:32:46;5.60;;;5.15;;
84146;SDS011;74267;50.434;7.398;2023-12-22T04:35:11;5.55;;;4.82;;
84146;SDS011;74267;50.434;7.398;2023-12-22T04:37:36;4.93;;;4.25;;
84146;SDS011;74267;50.434;7.398;2023-12-22T04:40:02;9.13;;;5.95;;
84146;SDS011;74267;50.434;7.398;2023-12-22T04:42:29;5.90;;;5.28;;
84146;SDS011;74267;50.434;7.398;2023-12-22T04:44:54;6.15;;;5.60;;
84146;SDS011;74267;50.434;7.398;2023-12-22T04:47:20;5.40;;;4.13;;
84146;SDS011;74267;50.434;7.398;2023-12-22T04:49:45;7.70;;;5.55;;
84146;SDS011;74267;50.434;7.398;2023-12-22T04:52:11;5.28;;;4.85;;
84146;SDS011;74267;50.434;7.398;2023-12-22T04:54:37;8.00;;;7.30;;
84146;SDS011;74267;50.434;7.398;2023-12-22T04:57:02;8.27;;;6.15;;
84146;SDS011;74267;50.434;7.398;2023-12-22T04:59:28;8.13;;;5.63;;
84146;SDS011;74267;50.434;7.398;2023-12-22T05:01:53;5.50;;;5.00;;
84146;SDS011;74267;50.434;7.398;2023-12-22T05:04:19;8.10;;;4.78;;
84146;SDS011;74267;50.434;7.398;2023-12-22T05:06:44;6.15;;;5.43;;
84146;SDS011;74267;50.434;7.398;2023-12-22T05:09:10;8.85;;;5.65;;
84146;SDS011;74267;50.434;7.398;2023-12-22T05:11:36;7.30;;;5.35;;
84146;SDS011;74267;50.434;7.398;2023-12-22T05:14:01;6.13;;;4.60;;
84146;SDS011;74267;50.434;7.398;2023-12-22T05:16:26;6.53;;;5.20;;
84146;SDS011;74267;50.434;7.398;2023-12-22T05:18:54;16.38;;;6.75;;
84146;SDS011;74267;50.434;7.398;2023-12-22T05:21:19;8.68;;;4.68;;
84146;SDS011;74267;50.434;7.398;2023-12-22T05:23:46;7.72;;;4.50;;
84146;SDS011;74267;50.434;7.398;2023-12-22T05:26:16;7.82;;;6.03;;
84146;SDS011;74267;50.434;7.398;2023-12-22T05:28:44;6.05;;;5.43;;
84146;SDS011;74267;50.434;7.398;2023-12-22T05:31:10;6.50;;;4.28;;
84146;SDS011;74267;50.434;7.398;2023-12-22T05:33:35;5.80;;;4.38;;
84146;SDS011;74267;50.434;7.398;2023-12-22T05:36:00;5.40;;;4.82;;
84146;SDS011;74267;50.434;7.398;2023-12-22T05:38:26;5.38;;;4.97;;
84146;SDS011;74267;50.434;7.398;2023-12-22T05:40:51;7.68;;;6.50;;
84146;SDS011;74267;50.434;7.398;2023-12-22T05:43:16;5.40;;;4.45;;
84146;SDS011;74267;50.434;7.398;2023-12-22T05:45:42;8.32;;;5.20;;
84146;SDS011;74267;50.434;7.398;2023-12-22T05:48:07;6.88;;;5.53;;
84146;SDS011;74267;50.434;7.398;2023-12-22T05:50:33;7.50;;;5.03;;
84146;SDS011;74267;50.434;7.398;2023-12-22T05:52:58;9.40;;;5.82;;
84146;SDS011;74267;50.434;7.398;2023-12-22T05:55:23;3.88;;;3.33;;
84146;SDS011;74267;50.434;7.398;2023-12-22T05:57:49;6.70;;;5.40;;
84146;SDS011;74267;50.434;7.398;2023-12-22T06:00:14;7.90;;;5.85;;
84146;SDS011;74267;50.434;7.398;2023-12-22T06:02:40;7.22;;;5.25;;
84146;SDS011;74267;50.434;7.398;2023-12-22T06:05:06;9.45;;;5.03;;
84146;SDS011;74267;50.434;7.398;2023-12-22T06:07:31;8.68;;;5.15;;
84146;SDS011;74267;50.434;7.398;2023-12-22T06:09:57;8.50;;;5.53;;
84146;SDS011;74267;50.434;7.398;2023-12-22T06:12:22;9.05;;;4.82;;
84146;SDS011;74267;50.434;7.398;2023-12-22T06:14:48;6.88;;;4.68;;
84146;SDS011;74267;50.434;7.398;2023-12-22T06:17:13;7.82;;;5.70;;
84146;SDS011;74267;50.434;7.398;2023-12-22T06:19:38;6.05;;;4.78;;
84146;SDS011;74267;50.434;7.398;2023-12-22T06:22:05;7.45;;;4.30;;
84146;SDS011;74267;50.434;7.398;2023-12-22T06:24:30;12.95;;;6.53;;
84146;SDS011;74267;50.434;7.398;2023-12-22T06:26:56;6.00;;;5.10;;
84146;SDS011;74267;50.434;7.398;2023-12-22T06:29:21;10.20;;;5.57;;
84146;SDS011;74267;50.434;7.398;2023-12-22T06:31:48;11.02;;;5.55;;
84146;SDS011;74267;50.434;7.398;2023-12-22T06:34:16;10.80;;;6.20;;
84146;SDS011;74267;50.434;7.398;2023-12-22T06:36:42;6.65;;;5.70;;
84146;SDS011;74267;50.434;7.398;2023-12-22T06:39:07;8.23;;;4.15;;
84146;SDS011;74267;50.434;7.398;2023-12-22T06:41:33;10.02;;;6.88;;
84146;SDS011;74267;50.434;7.398;2023-12-22T06:43:59;11.57;;;5.80;;
84146;SDS011;74267;50.434;7.398;2023-12-22T06:46:24;10.48;;;4.95;;
84146;SDS011;74267;50.434;7.398;2023-12-22T06:48:56;6.63;;;4.80;;
84146;SDS011;74267;50.434;7.398;2023-12-22T06:51:26;6.85;;;5.22;;
84146;SDS011;74267;50.434;7.398;2023-12-22T06:53:53;11.23;;;5.63;;
84146;SDS011;74267;50.434;7.398;2023-12-22T06:56:23;5.60;;;4.10;;
84146;SDS011;74267;50.434;7.398;2023-12-22T06:58:50;5.72;;;5.05;;
84146;SDS011;74267;50.434;7.398;2023-12-22T07:01:19;6.50;;;4.63;;
84146;SDS011;74267;50.434;7.398;2023-12-22T07:04:01;6.72;;;3.47;;
84146;SDS011;74267;50.434;7.398;2023-12-22T07:06:31;5.97;;;5.00;;
84146;SDS011;74267;50.434;7.398;2023-12-22T07:11:36;4.47;;;3.83;;
84146;SDS011;74267;50.434;7.398;2023-12-22T07:14:02;5.53;;;3.65;;
84146;SDS011;74267;50.434;7.398;2023-12-22T07:16:27;3.08;;;2.88;;
84146;SDS011;74267;50.434;7.398;2023-12-22T07:18:52;4.70;;;4.40;;
84146;SDS011;74267;50.434;7.398;2023-12-22T07:21:18;5.47;;;5.13;;
84146;SDS011;74267;50.434;7.398;2023-12-22T07:23:43;4.20;;;3.80;;
84146;SDS011;74267;50.434;7.398;2023-12-22T07:26:09;4.60;;;4.18;;
84146;SDS011;74267;50.434;7.398;2023-12-22T07:28:35;5.50;;;5.05;;
84146;SDS011;74267;50.434;7.398;2023-12-22T07:31:00;4.20;;;3.28;;
84146;SDS011;74267;50.434;7.398;2023-12-22T07:33:25;5.30;;;4.85;;
84146;SDS011;74267;50.434;7.398;2023-12-22T07:35:50;7.32;;;4.75;;
84146;SDS011;74267;50.434;7.398;2023-12-22T07:38:16;6.15;;;5.55;;
84146;SDS011;74267;50.434;7.398;2023-12-22T07:40:41;7.63;;;4.45;;
84146;SDS011;74267;50.434;7.398;2023-12-22T07:43:06;4.40;;;3.97;;
84146;SDS011;74267;50.434;7.398;2023-12-22T07:45:33;7.30;;;5.53;;
84146;SDS011;74267;50.434;7.398;2023-12-22T07:47:58;4.97;;;4.65;;
84146;SDS011;74267;50.434;7.398;2023-12-22T07:50:23;5.15;;;4.72;;
84146;SDS011;74267;50.434;7.398;2023-12-22T07:52:48;6.70;;;6.15;;
84146;SDS011;74267;50.434;7.398;2023-12-22T07:55:15;5.07;;;4.60;;
84146;SDS011;74267;50.434;7.398;2023-12-22T07:57:40;6.70;;;4.97;;
84146;SDS011;74267;50.434;7.398;2023-12-22T08:00:06;4.85;;;4.32;;
84146;SDS011;74267;50.434;7.398;2023-12-22T08:02:34;5.40;;;4.90;;
84146;SDS011;74267;50.434;7.398;2023-12-22T08:05:00;5.20;;;4.85;;
84146;SDS011;74267;50.434;7.398;2023-12-22T08:07:25;5.70;;;4.82;;
84146;SDS011;74267;50.434;7.398;2023-12-22T08:09:50;4.78;;;4.47;;
84146;SDS011;74267;50.434;7.398;2023-12-22T08:12:16;5.80;;;5.22;;
84146;SDS011;74267;50.434;7.398;2023-12-22T08:14:41;4.55;;;4.15;;
84146;SDS011;74267;50.434;7.398;2023-12-22T08:17:07;5.25;;;4.90;;
84146;SDS011;74267;50.434;7.398;2023-12-22T08:19:32;5.90;;;4.93;;
84146;SDS011;74267;50.434;7.398;2023-12-22T08:24:26;7.60;;;4.97;;
84146;SDS011;74267;50.434;7.398;2023-12-22T08:26:51;5.50;;;4.70;;
84146;SDS011;74267;50.434;7.398;2023-12-22T08:29:16;8.23;;;5.68;;
84146;SDS011;74267;50.434;7.398;2023-12-22T08:31:42;9.10;;;5.20;;
84146;SDS011;74267;50.434;7.398;2023-12-22T08:34:08;8.05;;;4.90;;
84146;SDS011;74267;50.434;7.398;2023-12-22T08:36:34;8.40;;;6.22;;
84146;SDS011;74267;50.434;7.398;2023-12-22T08:38:59;8.43;;;5.68;;
84146;SDS011;74267;50.434;7.398;2023-12-22T08:41:24;8.98;;;5.70;;
84146;SDS011;74267;50.434;7.398;2023-12-22T08:43:50;8.55;;;5.38;;
84146;SDS011;74267;50.434;7.398;2023-12-22T08:46:15;10.48;;;7.10;;
84146;SDS011;74267;50.434;7.398;2023-12-22T08:48:40;8.40;;;5.55;;
84146;SDS011;74267;50.434;7.398;2023-12-22T08:51:06;10.55;;;5.43;;
84146;SDS011;74267;50.434;7.398;2023-12-22T08:53:32;13.15;;;6.47;;
84146;SDS011;74267;50.434;7.398;2023-12-22T08:56:01;6.82;;;4.88;;
84146;SDS011;74267;50.434;7.398;2023-12-22T08:58:26;7.85;;;2.85;;
84146;SDS011;74267;50.434;7.398;2023-12-22T09:00:52;6.18;;;5.60;;
84146;SDS011;74267;50.434;7.398;2023-12-22T09:03:17;8.48;;;6.32;;
84146;SDS011;74267;50.434;7.398;2023-12-22T09:05:42;8.23;;;6.00;;
84146;SDS011;74267;50.434;7.398;2023-12-22T09:08:08;9.23;;;5.47;;
84146;SDS011;74267;50.434;7.398;2023-12-22T09:10:33;9.82;;;6.53;;
84146;SDS011;74267;50.434;7.398;2023-12-22T09:12:58;12.80;;;6.63;;
84146;SDS011;74267;50.434;7.398;2023-12-22T09:15:25;9.32;;;4.70;;
84146;SDS011;74267;50.434;7.398;2023-12-22T09:17:51;11.50;;;5.78;;
84146;SDS011;74267;50.434;7.398;2023-12-22T09:20:18;9.70;;;6.07;;
84146;SDS011;74267;50.434;7.398;2023-12-22T09:22:43;9.40;;;6.30;;
84146;SDS011;74267;50.434;7.398;2023-12-22T09:25:08;11.25;;;5.75;;
84146;SDS011;74267;50.434;7.398;2023-12-22T09:27:34;12.73;;;5.88;;
84146;SDS011;74267;50.434;7.398;2023-12-22T09:29:59;11.38;;;5.30;;
84146;SDS011;74267;50.434;7.398;2023-12-22T09:32:24;12.50;;;5.97;;
84146;SDS011;74267;50.434;7.398;2023-12-22T09:34:50;10.63;;;6.45;;
84146;SDS011;74267;50.434;7.398;2023-12-22T09:37:15;12.80;;;5.38;;
84146;SDS011;74267;50.434;7.398;2023-12-22T09:39:40;8.05;;;5.13;;
84146;SDS011;74267;50.434;7.398;2023-12-22T09:42:05;8.25;;;5.03;;
84146;SDS011;74267;50.434;7.398;2023-12-22T09:44:32;6.05;;;4.78;;
84146;SDS011;74267;50.434;7.398;2023-12-22T09:46:58;13.77;;;6.38;;
84146;SDS011;74267;50.434;7.398;2023-12-22T09:49:28;12.30;;;5.45;;
84146;SDS011;74267;50.434;7.398;2023-12-22T09:51:54;11.40;;;4.47;;
84146;SDS011;74267;50.434;7.398;2023-12-22T09:54:21;9.18;;;5.32;;
84146;SDS011;74267;50.434;7.398;2023-12-22T09:56:47;9.15;;;5.32;;
84146;SDS011;74267;50.434;7.398;2023-12-22T09:59:14;9.10;;;4.97;;
84146;SDS011;74267;50.434;7.398;2023-12-22T10:01:43;9.32;;;5.05;;
84146;SDS011;74267;50.434;7.398;2023-12-22T10:04:10;6.35;;;5.28;;
84146;SDS011;74267;50.434;7.398;2023-12-22T10:06:37;7.88;;;5.68;;
84146;SDS011;74267;50.434;7.398;2023-12-22T10:09:04;5.93;;;4.72;;
84146;SDS011;74267;50.434;7.398;2023-12-22T10:11:31;5.93;;;4.63;;
84146;SDS011;74267;50.434;7.398;2023-12-22T10:13:59;4.35;;;1.58;;
84146;SDS011;74267;50.434;7.398;2023-12-22T10:16:26;10.52;;;4.57;;
84146;SDS011;74267;50.434;7.398;2023-12-22T10:18:52;5.63;;;4.25;;
84146;SDS011;74267;50.434;7.398;2023-12-22T10:21:18;7.43;;;4.55;;
84146;SDS011;74267;50.434;7.398;2023-12-22T10:23:44;6.63;;;5.45;;
84146;SDS011;74267;50.434;7.398;2023-12-22T10:26:12;6.13;;;5.55;;
84146;SDS011;74267;50.434;7.398;2023-12-22T10:28:37;5.95;;;3.97;;
84146;SDS011;74267;50.434;7.398;2023-12-22T10:31:03;4.25;;;3.95;;
84146;SDS011;74267;50.434;7.398;2023-12-22T10:33:32;7.22;;;5.75;;
84146;SDS011;74267;50.434;7.398;2023-12-22T10:35:58;4.68;;;3.40;;
84146;SDS011;74267;50.434;7.398;2023-12-22T10:38:25;6.20;;;4.90;;
84146;SDS011;74267;50.434;7.398;2023-12-22T10:40:50;3.72;;;3.42;;
84146;SDS011;74267;50.434;7.398;2023-12-22T10:43:16;5.32;;;4.25;;
84146;SDS011;74267;50.434;7.398;2023-12-22T10:45:42;4.50;;;4.15;;
84146;SDS011;74267;50.434;7.398;2023-12-22T10:48:07;4.85;;;4.38;;
84146;SDS011;74267;50.434;7.398;2023-12-22T10:50:33;4.15;;;3.63;;
84146;SDS011;74267;50.434;7.398;2023-12-22T10:52:58;3.67;;;3.30;;
84146;SDS011;74267;50.434;7.398;2023-12-22T10:55:24;3.78;;;3.47;;
84146;SDS011;74267;50.434;7.398;2023-12-22T10:57:49;3.90;;;3.70;;
84146;SDS011;74267;50.434;7.398;2023-12-22T11:00:15;4.03;;;3.72;;
84146;SDS011;74267;50.434;7.398;2023-12-22T11:02:42;3.40;;;3.10;;
84146;SDS011;74267;50.434;7.398;2023-12-22T11:05:10;3.47;;;3.28;;
84146;SDS011;74267;50.434;7.398;2023-12-22T11:07:37;5.93;;;5.53;;
84146;SDS011;74267;50.434;7.398;2023-12-22T11:10:04;4.45;;;4.13;;
84146;SDS011;74267;50.434;7.398;2023-12-22T11:12:31;5.30;;;4.95;;
84146;SDS011;74267;50.434;7.398;2023-12-22T11:15:01;3.80;;;3.50;;
84146;SDS011;74267;50.434;7.398;2023-12-22T11:17:28;5.60;;;5.20;;
84146;SDS011;74267;50.434;7.398;2023-12-22T11:19:54;4.65;;;4.45;;
84146;SDS011;74267;50.434;7.398;2023-12-22T11:22:21;4.28;;;3.97;;
84146;SDS011;74267;50.434;7.398;2023-12-22T11:24:47;4.63;;;4.22;;
84146;SDS011;74267;50.434;7.398;2023-12-22T11:27:17;4.00;;;3.70;;
84146;SDS011;74267;50.434;7.398;2023-12-22T11:29:49;4.82;;;3.92;;
84146;SDS011;74267;50.434;7.398;2023-12-22T11:32:15;4.00;;;3.80;;
84146;SDS011;74267;50.434;7.398;2023-12-22T11:34:43;1.05;;;0.93;;
84146;SDS011;74267;50.434;7.398;2023-12-22T11:37:10;3.67;;;3.47;;
84146;SDS011;74267;50.434;7.398;2023-12-22T11:39:37;3.83;;;3.55;;
84146;SDS011;74267;50.434;7.398;2023-12-22T11:42:03;3.85;;;3.60;;
84146;SDS011;74267;50.434;7.398;2023-12-22T11:44:30;4.55;;;4.25;;
84146;SDS011;74267;50.434;7.398;2023-12-22T11:47:06;4.18;;;3.88;;
84146;SDS011;74267;50.434;7.398;2023-12-22T11:49:35;10.25;;;6.55;;
84146;SDS011;74267;50.434;7.398;2023-12-22T11:52:14;4.25;;;3.95;;
84146;SDS011;74267;50.434;7.398;2023-12-22T11:54:47;4.57;;;4.38;;
84146;SDS011;74267;50.434;7.398;2023-12-22T11:59:57;3.97;;;3.78;;
84146;SDS011;74267;50.434;7.398;2023-12-22T12:04:51;4.45;;;4.15;;
84146;SDS011;74267;50.434;7.398;2023-12-22T12:10:01;3.88;;;3.67;;
84146;SDS011;74267;50.434;7.398;2023-12-22T12:12:26;3.80;;;3.58;;
84146;SDS011;74267;50.434;7.398;2023-12-22T12:14:52;4.65;;;4.32;;
84146;SDS011;74267;50.434;7.398;2023-12-22T12:17:23;4.00;;;3.80;;
84146;SDS011;74267;50.434;7.398;2023-12-22T12:19:48;3.70;;;3.40;;
84146;SDS011;74267;50.434;7.398;2023-12-22T12:22:14;2.88;;;2.75;;
84146;SDS011;74267;50.434;7.398;2023-12-22T12:24:40;4.25;;;4.05;;
84146;SDS011;74267;50.434;7.398;2023-12-22T12:27:06;3.40;;;3.20;;
84146;SDS011;74267;50.434;7.398;2023-12-22T12:29:32;4.00;;;3.70;;
84146;SDS011;74267;50.434;7.398;2023-12-22T12:32:02;3.65;;;3.45;;
84146;SDS011;74267;50.434;7.398;2023-12-22T12:34:29;3.40;;;3.20;;
84146;SDS011;74267;50.434;7.398;2023-12-22T12:36:54;3.25;;;3.05;;
84146;SDS011;74267;50.434;7.398;2023-12-22T12:39:20;2.85;;;2.65;;
84146;SDS011;74267;50.434;7.398;2023-12-22T12:41:53;5.07;;;4.78;;
84146;SDS011;74267;50.434;7.398;2023-12-22T12:44:19;4.43;;;4.22;;
84146;SDS011;74267;50.434;7.398;2023-12-22T12:46:46;3.58;;;3.38;;
84146;SDS011;74267;50.434;7.398;2023-12-22T12:49:11;3.45;;;3.25;;
84146;SDS011;74267;50.434;7.398;2023-12-22T12:51:37;3.42;;;3.22;;
84146;SDS011;74267;50.434;7.398;2023-12-22T12:54:04;4.38;;;1.20;;
84146;SDS011;74267;50.434;7.398;2023-12-22T12:56:35;4.10;;;3.90;;
84146;SDS011;74267;50.434;7.398;2023-12-22T12:59:13;3.90;;;3.70;;
84146;SDS011;74267;50.434;7.398;2023-12-22T13:01:46;3.47;;;3.28;;
84146;SDS011;74267;50.434;7.398;2023-12-22T13:04:13;5.20;;;4.70;;
84146;SDS011;74267;50.434;7.398;2023-12-22T13:06:46;3.58;;;3.38;;
84146;SDS011;74267;50.434;7.398;2023-12-22T13:09:14;6.07;;;5.72;;
84146;SDS011;74267;50.434;7.398;2023-12-22T13:11:40;4.60;;;4.30;;
84146;SDS011;74267;50.434;7.398;2023-12-22T13:14:11;6.45;;;5.95;;
84146;SDS011;74267;50.434;7.398;2023-12-22T13:16:37;4.20;;;3.90;;
84146;SDS011;74267;50.434;7.398;2023-12-22T13:19:04;4.07;;;3.78;;
84146;SDS011;74267;50.434;7.398;2023-12-22T13:21:30;4.45;;;4.15;;
84146;SDS011;74267;50.434;7.398;2023-12-22T13:26:34;4.72;;;4.03;;
84146;SDS011;74267;50.434;7.398;2023-12-22T13:29:00;4.28;;;3.88;;
84146;SDS011;74267;50.434;7.398;2023-12-22T13:31:25;3.90;;;3.58;;
84146;SDS011;74267;50.434;7.398;2023-12-22T13:33:51;3.55;;;3.35;;
84146;SDS011;74267;50.434;7.398;2023-12-22T13:36:16;4.88;;;4.57;;
84146;SDS011;74267;50.434;7.398;2023-12-22T13:38:45;4.35;;;4.03;;
84146;SDS011;74267;50.434;7.398;2023-12-22T13:41:12;4.05;;;3.85;;
84146;SDS011;74267;50.434;7.398;2023-12-22T13:43:37;4.35;;;4.03;;
84146;SDS011;74267;50.434;7.398;2023-12-22T13:46:03;4.05;;;3.65;;
84146;SDS011;74267;50.434;7.398;2023-12-22T13:48:29;3.35;;;3.15;;
84146;SDS011;74267;50.434;7.398;2023-12-22T13:50:58;4.07;;;3.72;;
84146;SDS011;74267;50.434;7.398;2023-12-22T13:53:25;3.17;;;2.92;;
84146;SDS011;74267;50.434;7.398;2023-12-22T13:55:57;4.55;;;4.25;;
84146;SDS011;74267;50.434;7.398;2023-12-22T13:58:26;3.55;;;3.25;;
84146;SDS011;74267;50.434;7.398;2023-12-22T14:00:52;4.00;;;3.70;;
84146;SDS011;74267;50.434;7.398;2023-12-22T14:03:18;4.38;;;4.15;;
84146;SDS011;74267;50.434;7.398;2023-12-22T14:05:49;3.97;;;3.72;;
84146;SDS011;74267;50.434;7.398;2023-12-22T14:08:17;3.22;;;2.92;;
84146;SDS011;74267;50.434;7.398;2023-12-22T14:10:46;3.25;;;3.05;;
84146;SDS011;74267;50.434;7.398;2023-12-22T14:13:12;4.80;;;4.50;;
84146;SDS011;74267;50.434;7.398;2023-12-22T14:15:38;4.20;;;3.92;;
84146;SDS011;74267;50.434;7.398;2023-12-22T14:18:03;4.10;;;3.85;;
84146;SDS011;74267;50.434;7.398;2023-12-22T14:20:28;3.70;;;3.38;;
84146;SDS011;74267;50.434;7.398;2023-12-22T14:22:54;4.47;;;4.18;;
84146;SDS011;74267;50.434;7.398;2023-12-22T14:25:19;3.70;;;3.40;;
84146;SDS011;74267;50.434;7.398;2023-12-22T14:27:44;3.47;;;3.20;;
84146;SDS011;74267;50.434;7.398;2023-12-22T14:30:10;3.20;;;2.90;;
84146;SDS011;74267;50.434;7.398;2023-12-22T14:32:36;4.50;;;4.20;;
84146;SDS011;74267;50.434;7.398;2023-12-22T14:35:01;4.75;;;4.45;;
84146;SDS011;74267;50.434;7.398;2023-12-22T14:37:26;3.78;;;3.47;;
84146;SDS011;74267;50.434;7.398;2023-12-22T14:39:52;3.47;;;3.25;;
84146;SDS011;74267;50.434;7.398;2023-12-22T14:42:17;4.13;;;3.83;;
84146;SDS011;74267;50.434;7.398;2023-12-22T14:44:42;3.85;;;2.53;;
84146;SDS011;74267;50.434;7.398;2023-12-22T14:47:08;3.80;;;2.90;;
84146;SDS011;74267;50.434;7.398;2023-12-22T14:49:33;3.72;;;3.25;;
84146;SDS011;74267;50.434;7.398;2023-12-22T14:51:59;3.85;;;3.55;;
84146;SDS011;74267;50.434;7.398;2023-12-22T14:54:25;3.60;;;3.40;;
84146;SDS011;74267;50.434;7.398;2023-12-22T14:56:51;3.38;;;3.08;;
84146;SDS011;74267;50.434;7.398;2023-12-22T14:59:16;4.20;;;3.42;;